首页
METAR-TAF:

METAR-TAF

机场 :

戴维斯-蒙森空军基地

图森, 亞利桑那州, 美国

纬度: 32-10N, 经度: 110-53W, 海拔: 824米

当前天气观测

该预报发布于13分钟前的22:55 UTC
风速9节,风向西转西北
温度 39°C
湿度 5%
气压 1007 hPa
能見度: 16.1公里
天空无云

METAR: KDMA 152255Z 30009KT 10SM CLR 39/M07 A2975 RMK A02A SLP2961 $

时间: 16:08 (23:08 UTC)

预报

该预报发布于4小时和8分钟前的19:00 UTC
预报有效从15日的 19点(UTC)到 17日的 01点(UTC)
风速12节,风向西转西北
能见度10公里或以上
天空无云
成为
从 16日的 05点(UTC)到 16日的 06点(UTC)
风速9节,风向东转东南
能见度10公里或以上
成为
从 16日的 18点(UTC)到 16日的 19点(UTC)
风速9节,风向西转西北
能见度10公里或以上

TAF: KDMA 151900Z 1519/1701 30012KT 9999 SKC QNH2977INS BECMG 1605/1606 12009KT 9999 QNH2983INS BECMG 1618/1619 30009KT 9999 QNH2972INS TX41/1522Z TN22/1612Z

超过4000个机场的气象观测和天气预报(METAR&TAF报告)。

可查询的气象台以黄色和红色小点在地图上表示。

将鼠标移到小点上方,可查看气象台名称。

然后点击查看天气观测和预报。

如需切换地图:点击带黑十字的绿色按钮放大地图;点击带横线的绿色按钮缩小地图;或者点击绿色箭头查看邻近地区的地图。


METAR-TAF: